sensor_id;sensor_type;location;lat;lon;timestamp;P1;durP1;ratioP1;P2;durP2;ratioP2
21943;SDS011;11136;48.778;9.126;2023-02-21T00:01:52;5.03;;;2.00;;
21943;SDS011;11136;48.778;9.126;2023-02-21T00:04:36;3.10;;;1.83;;
21943;SDS011;11136;48.778;9.126;2023-02-21T00:07:20;3.30;;;1.65;;
21943;SDS011;11136;48.778;9.126;2023-02-21T00:10:06;3.35;;;1.67;;
21943;SDS011;11136;48.778;9.126;2023-02-21T00:12:52;4.30;;;1.80;;
21943;SDS011;11136;48.778;9.126;2023-02-21T00:15:36;4.40;;;2.00;;
21943;SDS011;11136;48.778;9.126;2023-02-21T00:18:20;3.22;;;1.60;;
21943;SDS011;11136;48.778;9.126;2023-02-21T00:21:05;4.22;;;1.90;;
21943;SDS011;11136;48.778;9.126;2023-02-21T00:23:49;4.13;;;1.98;;
21943;SDS011;11136;48.778;9.126;2023-02-21T00:26:33;5.75;;;1.50;;
21943;SDS011;11136;48.778;9.126;2023-02-21T00:29:17;6.82;;;2.53;;
21943;SDS011;11136;48.778;9.126;2023-02-21T00:32:01;4.82;;;1.90;;
21943;SDS011;11136;48.778;9.126;2023-02-21T00:34:45;2.95;;;1.60;;
21943;SDS011;11136;48.778;9.126;2023-02-21T00:37:29;2.33;;;1.58;;
21943;SDS011;11136;48.778;9.126;2023-02-21T00:40:14;2.42;;;1.50;;
21943;SDS011;11136;48.778;9.126;2023-02-21T00:42:59;3.33;;;1.73;;
21943;SDS011;11136;48.778;9.126;2023-02-21T00:45:44;4.22;;;1.80;;
21943;SDS011;11136;48.778;9.126;2023-02-21T00:48:29;3.28;;;1.65;;
21943;SDS011;11136;48.778;9.126;2023-02-21T00:51:14;3.45;;;1.48;;
21943;SDS011;11136;48.778;9.126;2023-02-21T00:53:58;3.65;;;1.70;;
21943;SDS011;11136;48.778;9.126;2023-02-21T00:56:43;2.95;;;1.80;;
21943;SDS011;11136;48.778;9.126;2023-02-21T00:59:28;4.00;;;1.67;;
21943;SDS011;11136;48.778;9.126;2023-02-21T01:02:12;1.65;;;1.38;;
21943;SDS011;11136;48.778;9.126;2023-02-21T01:04:57;4.60;;;1.80;;
21943;SDS011;11136;48.778;9.126;2023-02-21T01:07:41;3.40;;;1.75;;
21943;SDS011;11136;48.778;9.126;2023-02-21T01:10:25;3.35;;;1.88;;
21943;SDS011;11136;48.778;9.126;2023-02-21T01:13:10;2.55;;;1.83;;
21943;SDS011;11136;48.778;9.126;2023-02-21T01:15:54;3.85;;;1.80;;
21943;SDS011;11136;48.778;9.126;2023-02-21T01:18:39;5.15;;;2.05;;
21943;SDS011;11136;48.778;9.126;2023-02-21T01:21:23;3.67;;;1.60;;
21943;SDS011;11136;48.778;9.126;2023-02-21T01:24:08;5.03;;;1.60;;
21943;SDS011;11136;48.778;9.126;2023-02-21T01:26:54;6.50;;;2.22;;
21943;SDS011;11136;48.778;9.126;2023-02-21T01:29:39;3.72;;;2.40;;
21943;SDS011;11136;48.778;9.126;2023-02-21T01:32:23;4.57;;;2.00;;
21943;SDS011;11136;48.778;9.126;2023-02-21T01:35:07;3.33;;;1.80;;
21943;SDS011;11136;48.778;9.126;2023-02-21T01:37:53;2.50;;;1.60;;
21943;SDS011;11136;48.778;9.126;2023-02-21T01:40:37;5.60;;;1.77;;
21943;SDS011;11136;48.778;9.126;2023-02-21T01:43:22;3.42;;;1.70;;
21943;SDS011;11136;48.778;9.126;2023-02-21T01:46:12;4.57;;;2.08;;
21943;SDS011;11136;48.778;9.126;2023-02-21T01:49:00;6.00;;;1.95;;
21943;SDS011;11136;48.778;9.126;2023-02-21T01:51:47;4.60;;;2.30;;
21943;SDS011;11136;48.778;9.126;2023-02-21T01:54:33;3.42;;;1.77;;
21943;SDS011;11136;48.778;9.126;2023-02-21T01:57:20;2.25;;;1.52;;
21943;SDS011;11136;48.778;9.126;2023-02-21T02:00:06;3.90;;;1.95;;
21943;SDS011;11136;48.778;9.126;2023-02-21T02:02:59;4.68;;;1.95;;
21943;SDS011;11136;48.778;9.126;2023-02-21T02:05:50;3.33;;;1.70;;
21943;SDS011;11136;48.778;9.126;2023-02-21T02:08:40;3.33;;;1.80;;
21943;SDS011;11136;48.778;9.126;2023-02-21T02:11:35;4.45;;;1.67;;
21943;SDS011;11136;48.778;9.126;2023-02-21T02:25:47;3.72;;;1.83;;
21943;SDS011;11136;48.778;9.126;2023-02-21T02:28:16;5.50;;;1.55;;
21943;SDS011;11136;48.778;9.126;2023-02-21T02:33:34;4.10;;;1.92;;
21943;SDS011;11136;48.778;9.126;2023-02-21T02:36:18;3.20;;;1.33;;
21943;SDS011;11136;48.778;9.126;2023-02-21T02:39:16;2.75;;;1.73;;
21943;SDS011;11136;48.778;9.126;2023-02-21T02:42:06;6.55;;;1.95;;
21943;SDS011;11136;48.778;9.126;2023-02-21T02:44:56;4.03;;;1.98;;
21943;SDS011;11136;48.778;9.126;2023-02-21T02:47:29;6.20;;;1.52;;
21943;SDS011;11136;48.778;9.126;2023-02-21T02:49:58;7.47;;;1.70;;
21943;SDS011;11136;48.778;9.126;2023-02-21T02:52:25;3.70;;;1.70;;
21943;SDS011;11136;48.778;9.126;2023-02-21T02:55:02;4.35;;;1.90;;
21943;SDS011;11136;48.778;9.126;2023-02-21T02:57:44;3.75;;;1.70;;
21943;SDS011;11136;48.778;9.126;2023-02-21T03:00:13;7.45;;;1.92;;
21943;SDS011;11136;48.778;9.126;2023-02-21T03:02:48;3.58;;;2.03;;
21943;SDS011;11136;48.778;9.126;2023-02-21T03:05:38;3.30;;;1.75;;
21943;SDS011;11136;48.778;9.126;2023-02-21T03:08:50;3.78;;;1.80;;
21943;SDS011;11136;48.778;9.126;2023-02-21T03:11:17;2.13;;;1.23;;
21943;SDS011;11136;48.778;9.126;2023-02-21T03:14:02;2.95;;;1.77;;
21943;SDS011;11136;48.778;9.126;2023-02-21T03:16:50;4.07;;;1.58;;
21943;SDS011;11136;48.778;9.126;2023-02-21T03:19:25;4.18;;;1.75;;
21943;SDS011;11136;48.778;9.126;2023-02-21T03:22:02;2.47;;;1.95;;
21943;SDS011;11136;48.778;9.126;2023-02-21T03:24:34;2.35;;;1.63;;
21943;SDS011;11136;48.778;9.126;2023-02-21T03:27:03;2.95;;;1.48;;
21943;SDS011;11136;48.778;9.126;2023-02-21T03:29:31;3.45;;;1.70;;
21943;SDS011;11136;48.778;9.126;2023-02-21T03:32:00;3.92;;;2.00;;
21943;SDS011;11136;48.778;9.126;2023-02-21T03:34:40;5.05;;;1.83;;
21943;SDS011;11136;48.778;9.126;2023-02-21T03:37:08;5.10;;;1.63;;
21943;SDS011;11136;48.778;9.126;2023-02-21T03:39:41;3.53;;;2.00;;
21943;SDS011;11136;48.778;9.126;2023-02-21T03:42:07;2.95;;;1.60;;
21943;SDS011;11136;48.778;9.126;2023-02-21T03:44:33;2.45;;;1.60;;
21943;SDS011;11136;48.778;9.126;2023-02-21T03:46:58;1.92;;;1.65;;
21943;SDS011;11136;48.778;9.126;2023-02-21T03:49:24;3.47;;;1.95;;
21943;SDS011;11136;48.778;9.126;2023-02-21T03:51:49;2.03;;;1.60;;
21943;SDS011;11136;48.778;9.126;2023-02-21T03:54:15;4.28;;;1.70;;
21943;SDS011;11136;48.778;9.126;2023-02-21T03:56:40;12.32;;;1.90;;
21943;SDS011;11136;48.778;9.126;2023-02-21T03:59:06;8.05;;;2.00;;
21943;SDS011;11136;48.778;9.126;2023-02-21T04:01:31;4.25;;;1.60;;
21943;SDS011;11136;48.778;9.126;2023-02-21T04:03:57;3.75;;;1.52;;
21943;SDS011;11136;48.778;9.126;2023-02-21T04:06:23;3.30;;;1.58;;
21943;SDS011;11136;48.778;9.126;2023-02-21T04:08:48;2.28;;;1.67;;
21943;SDS011;11136;48.778;9.126;2023-02-21T04:11:18;3.03;;;1.75;;
21943;SDS011;11136;48.778;9.126;2023-02-21T04:13:46;2.67;;;1.67;;
21943;SDS011;11136;48.778;9.126;2023-02-21T04:16:11;6.78;;;1.40;;
21943;SDS011;11136;48.778;9.126;2023-02-21T04:18:37;2.28;;;2.08;;
21943;SDS011;11136;48.778;9.126;2023-02-21T04:21:02;3.22;;;1.75;;
21943;SDS011;11136;48.778;9.126;2023-02-21T04:23:28;8.35;;;2.03;;
21943;SDS011;11136;48.778;9.126;2023-02-21T04:25:54;3.63;;;1.90;;
21943;SDS011;11136;48.778;9.126;2023-02-21T04:28:19;2.88;;;1.40;;
21943;SDS011;11136;48.778;9.126;2023-02-21T04:30:45;4.85;;;1.75;;
21943;SDS011;11136;48.778;9.126;2023-02-21T04:33:10;4.97;;;2.10;;
21943;SDS011;11136;48.778;9.126;2023-02-21T04:35:36;1.90;;;1.60;;
21943;SDS011;11136;48.778;9.126;2023-02-21T04:38:02;1.58;;;1.45;;
21943;SDS011;11136;48.778;9.126;2023-02-21T04:40:28;3.22;;;2.42;;
21943;SDS011;11136;48.778;9.126;2023-02-21T04:42:53;3.00;;;2.28;;
21943;SDS011;11136;48.778;9.126;2023-02-21T04:45:19;2.67;;;1.35;;
21943;SDS011;11136;48.778;9.126;2023-02-21T04:47:44;4.25;;;1.88;;
21943;SDS011;11136;48.778;9.126;2023-02-21T04:50:10;4.35;;;2.25;;
21943;SDS011;11136;48.778;9.126;2023-02-21T04:52:35;4.13;;;1.65;;
21943;SDS011;11136;48.778;9.126;2023-02-21T04:55:01;3.80;;;2.22;;
21943;SDS011;11136;48.778;9.126;2023-02-21T04:57:27;3.80;;;1.80;;
21943;SDS011;11136;48.778;9.126;2023-02-21T04:59:56;2.33;;;1.60;;
21943;SDS011;11136;48.778;9.126;2023-02-21T05:02:25;2.10;;;1.58;;
21943;SDS011;11136;48.778;9.126;2023-02-21T05:04:52;4.43;;;1.50;;
21943;SDS011;11136;48.778;9.126;2023-02-21T05:07:17;4.10;;;1.60;;
21943;SDS011;11136;48.778;9.126;2023-02-21T05:09:43;4.82;;;1.85;;
21943;SDS011;11136;48.778;9.126;2023-02-21T05:12:09;1.77;;;1.50;;
21943;SDS011;11136;48.778;9.126;2023-02-21T05:14:36;2.65;;;1.73;;
21943;SDS011;11136;48.778;9.126;2023-02-21T05:17:03;3.80;;;1.52;;
21943;SDS011;11136;48.778;9.126;2023-02-21T05:19:29;2.22;;;1.58;;
21943;SDS011;11136;48.778;9.126;2023-02-21T05:21:56;3.15;;;1.92;;
21943;SDS011;11136;48.778;9.126;2023-02-21T05:24:23;3.05;;;1.70;;
21943;SDS011;11136;48.778;9.126;2023-02-21T05:26:50;2.40;;;1.48;;
21943;SDS011;11136;48.778;9.126;2023-02-21T05:29:16;2.97;;;1.48;;
21943;SDS011;11136;48.778;9.126;2023-02-21T05:31:42;3.20;;;1.73;;
21943;SDS011;11136;48.778;9.126;2023-02-21T05:34:08;6.53;;;2.20;;
21943;SDS011;11136;48.778;9.126;2023-02-21T05:36:35;4.38;;;1.90;;
21943;SDS011;11136;48.778;9.126;2023-02-21T05:39:01;3.63;;;1.73;;
21943;SDS011;11136;48.778;9.126;2023-02-21T05:41:27;4.20;;;1.85;;
21943;SDS011;11136;48.778;9.126;2023-02-21T05:43:53;3.63;;;1.63;;
21943;SDS011;11136;48.778;9.126;2023-02-21T05:46:26;4.32;;;2.13;;
21943;SDS011;11136;48.778;9.126;2023-02-21T05:48:53;2.05;;;1.35;;
21943;SDS011;11136;48.778;9.126;2023-02-21T05:51:19;5.65;;;2.03;;
21943;SDS011;11136;48.778;9.126;2023-02-21T05:53:45;2.40;;;1.60;;
21943;SDS011;11136;48.778;9.126;2023-02-21T05:56:11;4.57;;;2.15;;
21943;SDS011;11136;48.778;9.126;2023-02-21T05:58:38;7.28;;;1.52;;
21943;SDS011;11136;48.778;9.126;2023-02-21T06:01:03;4.05;;;2.03;;
21943;SDS011;11136;48.778;9.126;2023-02-21T06:03:29;4.15;;;1.80;;
21943;SDS011;11136;48.778;9.126;2023-02-21T06:05:55;6.10;;;2.08;;
21943;SDS011;11136;48.778;9.126;2023-02-21T06:08:20;3.15;;;1.70;;
21943;SDS011;11136;48.778;9.126;2023-02-21T06:10:46;3.25;;;1.73;;
21943;SDS011;11136;48.778;9.126;2023-02-21T06:13:12;3.30;;;1.83;;
21943;SDS011;11136;48.778;9.126;2023-02-21T06:15:37;3.78;;;1.75;;
21943;SDS011;11136;48.778;9.126;2023-02-21T06:18:03;4.45;;;1.80;;
21943;SDS011;11136;48.778;9.126;2023-02-21T06:20:28;4.72;;;1.75;;
21943;SDS011;11136;48.778;9.126;2023-02-21T06:22:54;5.03;;;1.90;;
21943;SDS011;11136;48.778;9.126;2023-02-21T06:25:20;5.32;;;1.88;;
21943;SDS011;11136;48.778;9.126;2023-02-21T06:27:46;4.00;;;1.75;;
21943;SDS011;11136;48.778;9.126;2023-02-21T06:30:12;4.85;;;2.17;;
21943;SDS011;11136;48.778;9.126;2023-02-21T06:32:37;8.43;;;2.60;;
21943;SDS011;11136;48.778;9.126;2023-02-21T06:35:03;6.97;;;2.08;;
21943;SDS011;11136;48.778;9.126;2023-02-21T06:37:29;4.32;;;2.10;;
21943;SDS011;11136;48.778;9.126;2023-02-21T06:39:55;7.53;;;2.15;;
21943;SDS011;11136;48.778;9.126;2023-02-21T06:42:21;6.55;;;2.00;;
21943;SDS011;11136;48.778;9.126;2023-02-21T06:44:47;4.28;;;2.00;;
21943;SDS011;11136;48.778;9.126;2023-02-21T06:47:13;5.10;;;2.38;;
21943;SDS011;11136;48.778;9.126;2023-02-21T06:49:40;5.45;;;1.90;;
21943;SDS011;11136;48.778;9.126;2023-02-21T06:52:06;13.75;;;3.05;;
21943;SDS011;11136;48.778;9.126;2023-02-21T06:54:31;7.63;;;2.30;;
21943;SDS011;11136;48.778;9.126;2023-02-21T06:56:57;5.00;;;2.42;;
21943;SDS011;11136;48.778;9.126;2023-02-21T06:59:24;4.57;;;2.00;;
21943;SDS011;11136;48.778;9.126;2023-02-21T07:01:50;6.43;;;2.80;;
21943;SDS011;11136;48.778;9.126;2023-02-21T07:04:15;4.03;;;2.08;;
21943;SDS011;11136;48.778;9.126;2023-02-21T07:06:41;5.43;;;2.10;;
21943;SDS011;11136;48.778;9.126;2023-02-21T07:09:07;4.32;;;1.98;;
21943;SDS011;11136;48.778;9.126;2023-02-21T07:11:33;4.80;;;2.40;;
21943;SDS011;11136;48.778;9.126;2023-02-21T07:13:59;3.25;;;2.13;;
21943;SDS011;11136;48.778;9.126;2023-02-21T07:16:25;3.67;;;2.00;;
21943;SDS011;11136;48.778;9.126;2023-02-21T07:18:51;4.25;;;2.35;;
21943;SDS011;11136;48.778;9.126;2023-02-21T07:21:17;10.95;;;3.28;;
21943;SDS011;11136;48.778;9.126;2023-02-21T07:23:44;7.95;;;2.97;;
21943;SDS011;11136;48.778;9.126;2023-02-21T07:26:11;8.32;;;3.08;;
21943;SDS011;11136;48.778;9.126;2023-02-21T07:28:37;7.03;;;2.25;;
21943;SDS011;11136;48.778;9.126;2023-02-21T07:31:03;4.15;;;2.22;;
21943;SDS011;11136;48.778;9.126;2023-02-21T07:33:28;4.97;;;2.30;;
21943;SDS011;11136;48.778;9.126;2023-02-21T07:35:54;7.25;;;3.00;;
21943;SDS011;11136;48.778;9.126;2023-02-21T07:38:24;4.10;;;2.50;;
21943;SDS011;11136;48.778;9.126;2023-02-21T07:40:55;5.00;;;3.10;;
21943;SDS011;11136;48.778;9.126;2023-02-21T07:43:23;4.07;;;2.33;;
21943;SDS011;11136;48.778;9.126;2023-02-21T07:45:50;8.13;;;2.67;;
21943;SDS011;11136;48.778;9.126;2023-02-21T07:48:15;5.75;;;2.60;;
21943;SDS011;11136;48.778;9.126;2023-02-21T07:50:41;6.22;;;2.97;;
21943;SDS011;11136;48.778;9.126;2023-02-21T07:53:07;5.13;;;2.58;;
21943;SDS011;11136;48.778;9.126;2023-02-21T07:55:34;4.32;;;2.50;;
21943;SDS011;11136;48.778;9.126;2023-02-21T07:57:59;3.90;;;2.40;;
21943;SDS011;11136;48.778;9.126;2023-02-21T08:00:27;6.65;;;3.00;;
21943;SDS011;11136;48.778;9.126;2023-02-21T08:02:53;4.03;;;2.63;;
21943;SDS011;11136;48.778;9.126;2023-02-21T08:05:19;7.53;;;2.80;;
21943;SDS011;11136;48.778;9.126;2023-02-21T08:07:45;7.22;;;2.90;;
21943;SDS011;11136;48.778;9.126;2023-02-21T08:10:12;6.10;;;3.35;;
21943;SDS011;11136;48.778;9.126;2023-02-21T08:12:42;4.97;;;2.50;;
21943;SDS011;11136;48.778;9.126;2023-02-21T08:15:08;6.22;;;2.72;;
21943;SDS011;11136;48.778;9.126;2023-02-21T08:17:33;6.85;;;3.00;;
21943;SDS011;11136;48.778;9.126;2023-02-21T08:19:59;8.85;;;3.55;;
21943;SDS011;11136;48.778;9.126;2023-02-21T08:22:25;8.82;;;3.58;;
21943;SDS011;11136;48.778;9.126;2023-02-21T08:24:50;9.93;;;3.78;;
21943;SDS011;11136;48.778;9.126;2023-02-21T08:27:16;9.50;;;3.47;;
21943;SDS011;11136;48.778;9.126;2023-02-21T08:29:42;5.70;;;4.03;;
21943;SDS011;11136;48.778;9.126;2023-02-21T08:32:09;6.60;;;3.17;;
21943;SDS011;11136;48.778;9.126;2023-02-21T08:34:35;8.13;;;3.90;;
21943;SDS011;11136;48.778;9.126;2023-02-21T08:37:00;7.50;;;4.07;;
21943;SDS011;11136;48.778;9.126;2023-02-21T08:39:30;7.75;;;3.90;;
21943;SDS011;11136;48.778;9.126;2023-02-21T08:41:56;10.93;;;3.95;;
21943;SDS011;11136;48.778;9.126;2023-02-21T08:44:22;11.73;;;4.18;;
21943;SDS011;11136;48.778;9.126;2023-02-21T08:46:47;11.15;;;4.50;;
21943;SDS011;11136;48.778;9.126;2023-02-21T08:49:13;9.43;;;4.15;;
21943;SDS011;11136;48.778;9.126;2023-02-21T08:51:39;10.55;;;5.30;;
21943;SDS011;11136;48.778;9.126;2023-02-21T08:54:04;10.18;;;4.97;;
21943;SDS011;11136;48.778;9.126;2023-02-21T08:56:31;14.80;;;4.50;;
21943;SDS011;11136;48.778;9.126;2023-02-21T08:58:57;12.38;;;4.32;;
21943;SDS011;11136;48.778;9.126;2023-02-21T09:01:23;9.80;;;3.92;;
21943;SDS011;11136;48.778;9.126;2023-02-21T09:03:49;13.95;;;4.75;;
21943;SDS011;11136;48.778;9.126;2023-02-21T09:06:15;14.85;;;4.85;;
21943;SDS011;11136;48.778;9.126;2023-02-21T09:08:41;14.65;;;5.03;;
21943;SDS011;11136;48.778;9.126;2023-02-21T09:11:07;14.15;;;4.90;;
21943;SDS011;11136;48.778;9.126;2023-02-21T09:13:33;10.05;;;5.30;;
21943;SDS011;11136;48.778;9.126;2023-02-21T09:15:59;13.93;;;5.18;;
21943;SDS011;11136;48.778;9.126;2023-02-21T09:18:27;10.60;;;4.72;;
21943;SDS011;11136;48.778;9.126;2023-02-21T09:20:53;12.00;;;4.90;;
21943;SDS011;11136;48.778;9.126;2023-02-21T09:23:22;10.45;;;3.88;;
21943;SDS011;11136;48.778;9.126;2023-02-21T09:25:50;9.73;;;4.60;;
21943;SDS011;11136;48.778;9.126;2023-02-21T09:28:17;11.45;;;4.93;;
21943;SDS011;11136;48.778;9.126;2023-02-21T09:30:43;9.98;;;4.50;;
21943;SDS011;11136;48.778;9.126;2023-02-21T09:33:09;8.80;;;4.60;;
21943;SDS011;11136;48.778;9.126;2023-02-21T09:35:35;12.05;;;5.47;;
21943;SDS011;11136;48.778;9.126;2023-02-21T09:38:02;8.90;;;4.25;;
21943;SDS011;11136;48.778;9.126;2023-02-21T09:43:23;15.70;;;4.45;;
21943;SDS011;11136;48.778;9.126;2023-02-21T09:45:55;7.30;;;4.60;;
21943;SDS011;11136;48.778;9.126;2023-02-21T09:48:24;11.65;;;4.00;;
21943;SDS011;11136;48.778;9.126;2023-02-21T09:51:01;7.45;;;4.30;;
21943;SDS011;11136;48.778;9.126;2023-02-21T09:53:30;16.20;;;4.50;;
21943;SDS011;11136;48.778;9.126;2023-02-21T09:56:10;9.52;;;4.43;;
21943;SDS011;11136;48.778;9.126;2023-02-21T09:58:45;13.93;;;4.47;;
21943;SDS011;11136;48.778;9.126;2023-02-21T10:09:41;18.20;;;3.95;;
21943;SDS011;11136;48.778;9.126;2023-02-21T10:15:44;16.80;;;4.57;;
21943;SDS011;11136;48.778;9.126;2023-02-21T10:20:43;9.13;;;3.53;;
21943;SDS011;11136;48.778;9.126;2023-02-21T10:23:14;12.40;;;3.58;;
21943;SDS011;11136;48.778;9.126;2023-02-21T10:25:43;10.70;;;4.15;;
21943;SDS011;11136;48.778;9.126;2023-02-21T10:28:13;5.65;;;3.10;;
21943;SDS011;11136;48.778;9.126;2023-02-21T10:30:43;6.82;;;3.33;;
21943;SDS011;11136;48.778;9.126;2023-02-21T10:33:10;8.80;;;3.25;;
21943;SDS011;11136;48.778;9.126;2023-02-21T10:35:36;11.25;;;3.40;;
21943;SDS011;11136;48.778;9.126;2023-02-21T10:38:03;11.02;;;3.42;;
21943;SDS011;11136;48.778;9.126;2023-02-21T10:40:47;9.18;;;3.35;;
21943;SDS011;11136;48.778;9.126;2023-02-21T10:43:22;3.92;;;2.85;;
21943;SDS011;11136;48.778;9.126;2023-02-21T10:48:38;8.68;;;3.53;;
21943;SDS011;11136;48.778;9.126;2023-02-21T10:53:35;9.13;;;3.47;;
21943;SDS011;11136;48.778;9.126;2023-02-21T10:58:55;11.18;;;3.35;;
21943;SDS011;11136;48.778;9.126;2023-02-21T11:03:58;7.53;;;2.70;;
21943;SDS011;11136;48.778;9.126;2023-02-21T11:06:32;7.80;;;3.20;;
21943;SDS011;11136;48.778;9.126;2023-02-21T11:09:00;12.98;;;3.67;;
21943;SDS011;11136;48.778;9.126;2023-02-21T11:11:30;7.30;;;3.10;;
21943;SDS011;11136;48.778;9.126;2023-02-21T11:19:44;6.00;;;2.83;;
21943;SDS011;11136;48.778;9.126;2023-02-21T11:22:14;6.40;;;3.40;;
21943;SDS011;11136;48.778;9.126;2023-02-21T11:24:52;7.63;;;3.25;;
21943;SDS011;11136;48.778;9.126;2023-02-21T11:27:20;8.48;;;3.55;;
21943;SDS011;11136;48.778;9.126;2023-02-21T11:29:47;5.10;;;3.05;;
21943;SDS011;11136;48.778;9.126;2023-02-21T11:32:25;8.13;;;3.85;;
21943;SDS011;11136;48.778;9.126;2023-02-21T11:35:05;9.68;;;3.30;;
21943;SDS011;11136;48.778;9.126;2023-02-21T11:37:47;8.77;;;3.28;;
21943;SDS011;11136;48.778;9.126;2023-02-21T11:40:25;7.55;;;3.75;;
21943;SDS011;11136;48.778;9.126;2023-02-21T11:43:16;8.60;;;3.10;;
21943;SDS011;11136;48.778;9.126;2023-02-21T11:45:56;8.27;;;3.42;;
21943;SDS011;11136;48.778;9.126;2023-02-21T11:48:45;5.57;;;3.20;;
21943;SDS011;11136;48.778;9.126;2023-02-21T11:54:07;11.63;;;3.35;;
21943;SDS011;11136;48.778;9.126;2023-02-21T12:23:58;14.63;;;2.88;;
21943;SDS011;11136;48.778;9.126;2023-02-21T12:26:54;7.60;;;3.28;;
21943;SDS011;11136;48.778;9.126;2023-02-21T12:43:49;6.30;;;2.85;;
21943;SDS011;11136;48.778;9.126;2023-02-21T12:47:17;6.75;;;3.00;;
21943;SDS011;11136;48.778;9.126;2023-02-21T12:57:31;3.63;;;2.17;;
21943;SDS011;11136;48.778;9.126;2023-02-21T13:00:15;5.07;;;2.10;;
21943;SDS011;11136;48.778;9.126;2023-02-21T13:05:36;2.78;;;2.25;;
21943;SDS011;11136;48.778;9.126;2023-02-21T13:13:21;9.48;;;2.20;;
21943;SDS011;11136;48.778;9.126;2023-02-21T13:15:51;6.45;;;2.28;;
21943;SDS011;11136;48.778;9.126;2023-02-21T13:18:25;6.60;;;2.40;;
21943;SDS011;11136;48.778;9.126;2023-02-21T13:29:18;4.65;;;2.10;;
21943;SDS011;11136;48.778;9.126;2023-02-21T13:34:59;10.75;;;2.25;;
21943;SDS011;11136;48.778;9.126;2023-02-21T13:37:28;5.07;;;2.05;;
21943;SDS011;11136;48.778;9.126;2023-02-21T13:39:57;8.00;;;1.92;;
21943;SDS011;11136;48.778;9.126;2023-02-21T13:42:31;4.97;;;2.00;;
21943;SDS011;11136;48.778;9.126;2023-02-21T13:55:33;5.53;;;1.60;;
21943;SDS011;11136;48.778;9.126;2023-02-21T14:13:41;3.80;;;1.80;;
21943;SDS011;11136;48.778;9.126;2023-02-21T14:18:45;3.92;;;1.40;;
21943;SDS011;11136;48.778;9.126;2023-02-21T14:26:36;4.32;;;1.30;;
21943;SDS011;11136;48.778;9.126;2023-02-21T14:31:52;4.63;;;1.30;;
21943;SDS011;11136;48.778;9.126;2023-02-21T14:37:02;3.42;;;1.50;;
21943;SDS011;11136;48.778;9.126;2023-02-21T14:39:35;5.30;;;1.85;;
21943;SDS011;11136;48.778;9.126;2023-02-21T14:52:56;2.13;;;1.30;;
21943;SDS011;11136;48.778;9.126;2023-02-21T15:03:42;6.18;;;1.30;;
21943;SDS011;11136;48.778;9.126;2023-02-21T15:06:17;5.53;;;1.48;;
21943;SDS011;11136;48.778;9.126;2023-02-21T15:08:48;2.75;;;1.17;;
21943;SDS011;11136;48.778;9.126;2023-02-21T15:14:22;6.38;;;1.25;;
21943;SDS011;11136;48.778;9.126;2023-02-21T15:16:58;4.03;;;1.48;;
21943;SDS011;11136;48.778;9.126;2023-02-21T15:19:28;4.75;;;1.50;;
21943;SDS011;11136;48.778;9.126;2023-02-21T15:27:54;3.33;;;1.48;;
21943;SDS011;11136;48.778;9.126;2023-02-21T15:30:21;2.83;;;1.42;;
21943;SDS011;11136;48.778;9.126;2023-02-21T15:32:56;6.30;;;1.73;;
21943;SDS011;11136;48.778;9.126;2023-02-21T15:35:33;6.28;;;1.95;;
21943;SDS011;11136;48.778;9.126;2023-02-21T15:38:04;5.10;;;1.42;;
21943;SDS011;11136;48.778;9.126;2023-02-21T15:40:35;2.05;;;1.30;;
21943;SDS011;11136;48.778;9.126;2023-02-21T15:43:02;2.63;;;1.60;;
21943;SDS011;11136;48.778;9.126;2023-02-21T15:45:36;5.07;;;2.28;;
21943;SDS011;11136;48.778;9.126;2023-02-21T15:48:09;5.47;;;2.55;;
21943;SDS011;11136;48.778;9.126;2023-02-21T15:50:39;4.70;;;2.00;;
21943;SDS011;11136;48.778;9.126;2023-02-21T15:53:12;2.25;;;1.52;;
21943;SDS011;11136;48.778;9.126;2023-02-21T15:55:40;4.28;;;1.70;;
21943;SDS011;11136;48.778;9.126;2023-02-21T16:00:37;5.10;;;1.77;;
21943;SDS011;11136;48.778;9.126;2023-02-21T16:05:51;6.90;;;1.60;;
21943;SDS011;11136;48.778;9.126;2023-02-21T16:08:19;5.75;;;1.98;;
21943;SDS011;11136;48.778;9.126;2023-02-21T16:10:46;3.03;;;1.48;;
21943;SDS011;11136;48.778;9.126;2023-02-21T16:13:12;13.35;;;2.67;;
21943;SDS011;11136;48.778;9.126;2023-02-21T16:15:39;5.45;;;1.67;;
21943;SDS011;11136;48.778;9.126;2023-02-21T16:18:06;5.75;;;1.65;;
21943;SDS011;11136;48.778;9.126;2023-02-21T16:20:35;9.00;;;2.55;;
21943;SDS011;11136;48.778;9.126;2023-02-21T16:25:57;13.35;;;3.28;;
21943;SDS011;11136;48.778;9.126;2023-02-21T16:28:25;31.63;;;5.03;;
21943;SDS011;11136;48.778;9.126;2023-02-21T16:30:52;39.75;;;6.32;;
21943;SDS011;11136;48.778;9.126;2023-02-21T16:33:19;55.95;;;7.32;;
21943;SDS011;11136;48.778;9.126;2023-02-21T16:35:46;29.13;;;6.95;;
21943;SDS011;11136;48.778;9.126;2023-02-21T16:38:13;19.17;;;5.57;;
21943;SDS011;11136;48.778;9.126;2023-02-21T16:40:40;32.72;;;6.90;;
21943;SDS011;11136;48.778;9.126;2023-02-21T16:43:06;33.33;;;6.25;;
21943;SDS011;11136;48.778;9.126;2023-02-21T16:45:31;28.13;;;4.80;;
21943;SDS011;11136;48.778;9.126;2023-02-21T16:47:59;34.05;;;5.45;;
21943;SDS011;11136;48.778;9.126;2023-02-21T16:50:34;16.67;;;3.70;;
21943;SDS011;11136;48.778;9.126;2023-02-21T16:53:01;17.92;;;4.32;;
21943;SDS011;11136;48.778;9.126;2023-02-21T16:55:28;26.63;;;6.28;;
21943;SDS011;11136;48.778;9.126;2023-02-21T16:57:58;61.15;;;6.82;;
21943;SDS011;11136;48.778;9.126;2023-02-21T17:00:26;38.95;;;5.18;;
21943;SDS011;11136;48.778;9.126;2023-02-21T17:02:52;37.53;;;3.58;;
21943;SDS011;11136;48.778;9.126;2023-02-21T17:05:18;10.45;;;2.58;;
21943;SDS011;11136;48.778;9.126;2023-02-21T17:07:54;26.98;;;3.47;;
21943;SDS011;11136;48.778;9.126;2023-02-21T17:10:22;22.48;;;3.35;;
21943;SDS011;11136;48.778;9.126;2023-02-21T17:12:47;55.17;;;5.55;;
21943;SDS011;11136;48.778;9.126;2023-02-21T17:15:13;22.30;;;4.47;;
21943;SDS011;11136;48.778;9.126;2023-02-21T17:17:39;45.97;;;4.72;;
21943;SDS011;11136;48.778;9.126;2023-02-21T17:20:05;47.05;;;5.18;;
21943;SDS011;11136;48.778;9.126;2023-02-21T17:22:32;83.80;;;8.52;;
21943;SDS011;11136;48.778;9.126;2023-02-21T17:24:58;42.10;;;4.50;;
21943;SDS011;11136;48.778;9.126;2023-02-21T17:27:23;63.58;;;6.95;;
21943;SDS011;11136;48.778;9.126;2023-02-21T17:29:50;55.75;;;5.85;;
21943;SDS011;11136;48.778;9.126;2023-02-21T17:32:15;31.80;;;3.75;;
21943;SDS011;11136;48.778;9.126;2023-02-21T17:34:42;27.55;;;2.97;;
21943;SDS011;11136;48.778;9.126;2023-02-21T17:37:08;40.40;;;3.78;;
21943;SDS011;11136;48.778;9.126;2023-02-21T17:39:34;87.40;;;8.63;;
21943;SDS011;11136;48.778;9.126;2023-02-21T17:42:00;83.70;;;8.73;;
21943;SDS011;11136;48.778;9.126;2023-02-21T17:44:26;44.80;;;6.72;;
21943;SDS011;11136;48.778;9.126;2023-02-21T17:46:54;25.98;;;3.65;;
21943;SDS011;11136;48.778;9.126;2023-02-21T17:49:21;23.65;;;3.80;;
21943;SDS011;11136;48.778;9.126;2023-02-21T17:51:48;39.33;;;4.05;;
21943;SDS011;11136;48.778;9.126;2023-02-21T17:54:16;31.38;;;4.03;;
21943;SDS011;11136;48.778;9.126;2023-02-21T17:56:44;15.18;;;2.85;;
21943;SDS011;11136;48.778;9.126;2023-02-21T17:59:10;15.02;;;3.08;;
21943;SDS011;11136;48.778;9.126;2023-02-21T18:01:36;12.88;;;2.80;;
21943;SDS011;11136;48.778;9.126;2023-02-21T18:04:02;26.33;;;3.67;;
21943;SDS011;11136;48.778;9.126;2023-02-21T18:06:28;13.98;;;3.55;;
21943;SDS011;11136;48.778;9.126;2023-02-21T18:08:54;44.42;;;5.18;;
21943;SDS011;11136;48.778;9.126;2023-02-21T18:11:21;21.48;;;3.20;;
21943;SDS011;11136;48.778;9.126;2023-02-21T18:13:48;24.65;;;3.53;;
21943;SDS011;11136;48.778;9.126;2023-02-21T18:16:14;16.35;;;2.78;;
21943;SDS011;11136;48.778;9.126;2023-02-21T18:18:40;39.25;;;6.47;;
21943;SDS011;11136;48.778;9.126;2023-02-21T18:21:06;104.18;;;10.85;;
21943;SDS011;11136;48.778;9.126;2023-02-21T18:23:33;113.50;;;11.88;;
21943;SDS011;11136;48.778;9.126;2023-02-21T18:26:00;39.95;;;4.55;;